createdAt,value
2022-09-18T00:00:01.818Z,84.72
2022-09-18T00:00:21.880Z,84.76
2022-09-18T00:00:41.943Z,84.82
2022-09-18T00:01:01.983Z,84.86
2022-09-18T00:01:22.053Z,84.88
2022-09-18T00:01:42.204Z,84.94
2022-09-18T00:02:02.384Z,85
2022-09-18T00:02:22.312Z,85.06
2022-09-18T00:02:42.377Z,85.14
2022-09-18T00:03:02.408Z,85.11
2022-09-18T00:03:22.486Z,85.18
2022-09-18T00:03:42.491Z,85.17
2022-09-18T00:04:02.543Z,85.23
2022-09-18T00:04:22.624Z,85.22
2022-09-18T00:04:42.651Z,85.23
2022-09-18T00:05:02.705Z,85.29
2022-09-18T00:05:22.781Z,85.26
2022-09-18T00:05:42.829Z,85.24
2022-09-18T00:06:02.878Z,85.29
2022-09-18T00:06:22.933Z,85.24
2022-09-18T00:06:42.956Z,85.2
2022-09-18T00:07:03.022Z,85.18
2022-09-18T00:07:23.076Z,85.2
2022-09-18T00:07:43.158Z,85.14
2022-09-18T00:08:03.222Z,85.08
2022-09-18T00:08:23.293Z,85.08
2022-09-18T00:08:43.375Z,85.13
2022-09-18T00:09:03.560Z,85.09
2022-09-18T00:09:23.500Z,85.04
2022-09-18T00:09:43.562Z,85.1
2022-09-18T00:10:03.649Z,85.09
2022-09-18T00:10:23.701Z,85.1
2022-09-18T00:10:43.735Z,85.17
2022-09-18T00:11:03.779Z,85.22
2022-09-18T00:11:23.828Z,85.27
2022-09-18T00:11:43.887Z,85.23
2022-09-18T00:12:03.947Z,85.15
2022-09-18T00:12:24.021Z,85.12
2022-09-18T00:12:44.075Z,85.05
2022-09-18T00:13:04.143Z,84.97
2022-09-18T00:13:24.203Z,85.02
2022-09-18T00:13:44.266Z,85.04
2022-09-18T00:14:04.313Z,85.04
2022-09-18T00:14:24.395Z,84.98
2022-09-18T00:14:44.441Z,85
2022-09-18T00:15:04.527Z,84.98
2022-09-18T00:15:24.581Z,84.9
2022-09-18T00:15:44.681Z,85.05
2022-09-18T00:16:04.744Z,85.04
2022-09-18T00:16:24.850Z,85.01
2022-09-18T00:16:44.841Z,84.93
2022-09-18T00:17:08.977Z,85
2022-09-18T00:17:24.951Z,85.01
2022-09-18T00:17:45.021Z,85.02
2022-09-18T00:18:05.059Z,84.98
2022-09-18T00:18:25.132Z,84.95
2022-09-18T00:18:45.191Z,84.89
2022-09-18T00:19:05.249Z,84.9
2022-09-18T00:19:25.291Z,84.88
2022-09-18T00:19:45.356Z,84.89
2022-09-18T00:20:05.406Z,84.87
2022-09-18T00:20:25.472Z,84.81
2022-09-18T00:20:45.535Z,84.86
2022-09-18T00:21:05.592Z,84.79
2022-09-18T00:21:25.649Z,84.79
2022-09-18T00:21:45.708Z,84.76
2022-09-18T00:22:05.744Z,84.82
2022-09-18T00:22:25.817Z,84.8
2022-09-18T00:22:45.891Z,84.75
2022-09-18T00:23:05.909Z,84.72
2022-09-18T00:23:25.968Z,84.73
2022-09-18T00:23:45.996Z,84.68
2022-09-18T00:24:06.072Z,84.73
2022-09-18T00:24:26.160Z,84.69
2022-09-18T00:24:46.232Z,84.76
2022-09-18T00:25:06.283Z,84.65
2022-09-18T00:25:26.327Z,84.61
2022-09-18T00:25:46.408Z,84.58
2022-09-18T00:26:06.462Z,84.61
2022-09-18T00:26:26.521Z,84.63
2022-09-18T00:26:46.587Z,84.51
2022-09-18T00:27:06.643Z,84.56
2022-09-18T00:27:26.690Z,84.47
2022-09-18T00:27:46.751Z,84.4
2022-09-18T00:28:06.827Z,84.4
2022-09-18T00:28:26.869Z,84.35
2022-09-18T00:28:46.933Z,84.37
2022-09-18T00:29:07.003Z,84.34
2022-09-18T00:29:27.101Z,84.27
2022-09-18T00:29:47.141Z,84.29
2022-09-18T00:30:07.213Z,84.31
2022-09-18T00:30:27.261Z,84.17
2022-09-18T00:30:47.317Z,84.18
2022-09-18T00:31:07.443Z,84.18
2022-09-18T00:31:27.485Z,84.07
2022-09-18T00:31:47.554Z,83.97
2022-09-18T00:32:07.585Z,84
2022-09-18T00:32:27.657Z,83.93
2022-09-18T00:32:47.710Z,83.91
2022-09-18T00:33:07.767Z,83.97
2022-09-18T00:33:27.804Z,83.97
2022-09-18T00:33:47.893Z,83.95
2022-09-18T00:34:07.928Z,83.96
2022-09-18T00:34:27.974Z,83.91
2022-09-18T00:34:48.037Z,83.96
2022-09-18T00:35:08.090Z,83.89
2022-09-18T00:35:28.137Z,83.87
2022-09-18T00:35:48.185Z,83.86
2022-09-18T00:36:08.231Z,83.85
2022-09-18T00:36:28.312Z,83.85
2022-09-18T00:36:48.371Z,83.73
2022-09-18T00:37:08.423Z,83.68
2022-09-18T00:37:28.493Z,83.59
2022-09-18T00:37:48.561Z,83.55
2022-09-18T00:38:08.621Z,83.58
2022-09-18T00:38:28.679Z,83.67
2022-09-18T00:38:48.726Z,83.66
2022-09-18T00:39:08.790Z,83.69
2022-09-18T00:39:28.844Z,83.67
2022-09-18T00:39:48.890Z,83.63
2022-09-18T00:40:09.043Z,83.64
2022-09-18T00:40:29.140Z,83.65
2022-09-18T00:40:49.090Z,83.69
2022-09-18T00:41:09.166Z,83.59
2022-09-18T00:41:29.217Z,83.59
2022-09-18T00:41:49.297Z,83.63
2022-09-18T00:42:09.344Z,83.61
2022-09-18T00:42:29.403Z,83.64
2022-09-18T00:42:49.456Z,83.58
2022-09-18T00:43:09.456Z,83.6
2022-09-18T00:43:29.517Z,83.65
2022-09-18T00:43:49.559Z,83.51
2022-09-18T00:44:09.616Z,83.46
2022-09-18T00:44:29.654Z,83.36
2022-09-18T00:44:49.706Z,83.35
2022-09-18T00:45:09.768Z,83.4
2022-09-18T00:45:29.851Z,83.42
2022-09-18T00:45:49.912Z,83.41
2022-09-18T00:46:09.974Z,83.32
2022-09-18T00:46:30.096Z,83.28
2022-09-18T00:46:50.100Z,83.25
2022-09-18T00:47:10.089Z,83.24
2022-09-18T00:47:30.171Z,83.21
2022-09-18T00:47:50.239Z,83.18
2022-09-18T00:48:10.298Z,83.1
2022-09-18T00:48:30.359Z,83.05
2022-09-18T00:48:50.448Z,83.04
2022-09-18T00:49:10.488Z,83.12
2022-09-18T00:49:30.528Z,83.02
2022-09-18T00:49:50.600Z,82.92
2022-09-18T00:50:10.677Z,82.86
2022-09-18T00:50:30.717Z,82.89
2022-09-18T00:50:50.822Z,82.9
2022-09-18T00:51:10.867Z,82.85
2022-09-18T00:51:30.936Z,82.8
2022-09-18T00:51:51.008Z,82.81
2022-09-18T00:52:11.092Z,82.82
2022-09-18T00:52:31.144Z,82.86
2022-09-18T00:52:51.190Z,82.85
2022-09-18T00:53:11.269Z,82.79
2022-09-18T00:53:31.324Z,82.79
2022-09-18T00:53:51.375Z,82.89
2022-09-18T00:54:11.447Z,82.91
2022-09-18T00:54:31.497Z,82.99
2022-09-18T00:54:51.559Z,82.86
2022-09-18T00:55:11.622Z,82.69
2022-09-18T00:55:31.675Z,82.75
2022-09-18T00:55:51.732Z,82.75
2022-09-18T00:56:11.790Z,82.75
2022-09-18T00:56:31.826Z,82.82
2022-09-18T00:56:51.872Z,82.81
2022-09-18T00:57:11.931Z,82.78
2022-09-18T00:57:32.017Z,82.75
2022-09-18T00:57:52.026Z,82.8
2022-09-18T00:58:12.082Z,82.71
2022-09-18T00:58:32.149Z,82.68
2022-09-18T00:58:52.203Z,82.69
2022-09-18T00:59:12.253Z,82.64
2022-09-18T00:59:32.306Z,82.54
2022-09-18T00:59:52.371Z,82.36
2022-09-18T01:00:12.443Z,82.22
2022-09-18T01:00:32.508Z,82.14
2022-09-18T01:00:52.598Z,82.09
2022-09-18T01:01:12.633Z,82.1
2022-09-18T01:01:32.711Z,82.08
2022-09-18T01:01:52.773Z,82.1
2022-09-18T01:02:12.881Z,82.13
2022-09-18T01:02:32.997Z,82.13
2022-09-18T01:02:52.850Z,82.16
2022-09-18T01:03:12.916Z,82.28
2022-09-18T01:03:32.987Z,82.35
2022-09-18T01:03:53.063Z,82.34
2022-09-18T01:04:13.124Z,82.36
2022-09-18T01:04:33.168Z,82.38
2022-09-18T01:04:53.246Z,82.29
2022-09-18T01:05:13.289Z,82.18
2022-09-18T01:05:33.350Z,82.05
2022-09-18T01:05:53.431Z,82.14
2022-09-18T01:06:13.493Z,82.1
2022-09-18T01:06:33.538Z,82.03
2022-09-18T01:06:53.589Z,82.08
2022-09-18T01:07:13.659Z,82.05
2022-09-18T01:07:33.714Z,81.99
2022-09-18T01:07:53.773Z,82
2022-09-18T01:08:13.807Z,81.92
2022-09-18T01:08:33.885Z,81.93
2022-09-18T01:08:53.927Z,81.94
2022-09-18T01:09:25.191Z,81.87
2022-09-18T01:09:34.056Z,81.95
2022-09-18T01:09:54.155Z,81.89
2022-09-18T01:10:14.200Z,81.92
2022-09-18T01:10:34.286Z,81.91
2022-09-18T01:10:54.319Z,81.88
2022-09-18T01:11:14.387Z,81.91
2022-09-18T01:11:34.438Z,81.85
2022-09-18T01:11:54.489Z,81.79
2022-09-18T01:12:14.543Z,81.72
2022-09-18T01:12:34.597Z,81.68
2022-09-18T01:12:54.677Z,81.73
2022-09-18T01:13:14.733Z,81.7
2022-09-18T01:13:34.804Z,81.82
2022-09-18T01:13:54.849Z,81.69
2022-09-18T01:14:14.913Z,81.69
2022-09-18T01:14:34.949Z,81.69
2022-09-18T01:14:54.992Z,81.66
2022-09-18T01:15:15.062Z,81.69
2022-09-18T01:15:35.112Z,81.68
2022-09-18T01:15:55.263Z,81.77
2022-09-18T01:16:15.302Z,81.66
2022-09-18T01:16:35.339Z,81.52
2022-09-18T01:16:55.359Z,81.61
2022-09-18T01:17:15.421Z,81.6
2022-09-18T01:17:35.473Z,81.6
2022-09-18T01:17:55.549Z,81.7
2022-09-18T01:18:15.595Z,81.67
2022-09-18T01:18:35.677Z,81.63
2022-09-18T01:18:55.745Z,81.67
2022-09-18T01:19:15.828Z,81.63
2022-09-18T01:19:35.872Z,81.6
2022-09-18T01:19:55.927Z,81.58
2022-09-18T01:20:16.008Z,81.61
2022-09-18T01:20:36.029Z,81.6
2022-09-18T01:20:56.083Z,81.66
2022-09-18T01:21:16.141Z,81.64
2022-09-18T01:21:36.211Z,81.67
2022-09-18T01:21:56.284Z,81.69
2022-09-18T01:22:16.336Z,81.66
2022-09-18T01:22:36.415Z,81.62
2022-09-18T01:22:56.490Z,81.55
2022-09-18T01:23:16.549Z,81.55
2022-09-18T01:23:36.624Z,81.52
2022-09-18T01:23:56.702Z,81.46
2022-09-18T01:24:16.741Z,81.5
2022-09-18T01:24:36.779Z,81.45
2022-09-18T01:24:56.843Z,81.36
2022-09-18T01:25:16.889Z,81.4
2022-09-18T01:25:36.959Z,81.4
2022-09-18T01:25:57.055Z,81.4
2022-09-18T01:26:17.111Z,81.44
2022-09-18T01:26:37.192Z,81.33
2022-09-18T01:26:57.246Z,81.36
2022-09-18T01:27:17.323Z,81.36
2022-09-18T01:27:37.377Z,81.45
2022-09-18T01:27:57.443Z,81.51
2022-09-18T01:28:17.499Z,81.48
2022-09-18T01:28:37.578Z,81.48
2022-09-18T01:28:57.661Z,81.33
2022-09-18T01:29:17.717Z,81.3
2022-09-18T01:29:37.730Z,81.37
2022-09-18T01:29:57.806Z,81.44
2022-09-18T01:30:17.898Z,81.45
2022-09-18T01:30:37.932Z,81.39
2022-09-18T01:30:58.063Z,81.46
2022-09-18T01:31:18.096Z,81.37
2022-09-18T01:31:38.167Z,81.33
2022-09-18T01:31:58.223Z,81.36
2022-09-18T01:32:18.251Z,81.37
2022-09-18T01:32:38.327Z,81.43
2022-09-18T01:32:58.382Z,81.44
2022-09-18T01:33:18.445Z,81.56
2022-09-18T01:33:38.506Z,81.48
2022-09-18T01:33:58.579Z,81.5
2022-09-18T01:34:18.637Z,81.59
2022-09-18T01:34:38.678Z,81.56
2022-09-18T01:34:58.751Z,81.72
2022-09-18T01:35:40.109Z,81.74
2022-09-18T01:35:41.960Z,81.7
2022-09-18T01:35:58.947Z,81.73
2022-09-18T01:36:19.026Z,81.68
2022-09-18T01:36:39.085Z,81.61
2022-09-18T01:36:59.172Z,81.57
2022-09-18T01:37:19.193Z,81.6
2022-09-18T01:37:39.252Z,81.61
2022-09-18T01:37:59.326Z,81.6
2022-09-18T01:38:19.369Z,81.68
2022-09-18T01:38:39.450Z,81.47
2022-09-18T01:38:59.547Z,81.43
2022-09-18T01:39:19.525Z,81.45
2022-09-18T01:39:39.605Z,81.52
2022-09-18T01:39:59.721Z,81.5
2022-09-18T01:40:19.804Z,81.6
2022-09-18T01:40:39.972Z,81.65
2022-09-18T01:40:59.886Z,81.63
2022-09-18T01:41:19.953Z,81.68
2022-09-18T01:41:40.021Z,81.66
2022-09-18T01:42:00.106Z,81.73
2022-09-18T01:42:20.157Z,81.64
2022-09-18T01:42:40.194Z,81.57
2022-09-18T01:43:00.230Z,81.58
2022-09-18T01:43:20.315Z,81.63
2022-09-18T01:43:40.373Z,81.61
2022-09-18T01:44:00.451Z,81.59
2022-09-18T01:44:20.534Z,81.57
2022-09-18T01:44:40.594Z,81.61
2022-09-18T01:45:00.659Z,81.55
2022-09-18T01:45:20.727Z,81.55
2022-09-18T01:45:40.750Z,81.47
2022-09-18T01:46:00.836Z,81.54
2022-09-18T01:46:20.928Z,81.53
2022-09-18T01:46:40.935Z,81.44
2022-09-18T01:47:01.044Z,81.39
2022-09-18T01:47:21.009Z,81.42
2022-09-18T01:47:41.078Z,81.41
2022-09-18T01:48:01.139Z,81.38
2022-09-18T01:48:21.207Z,81.35
2022-09-18T01:48:41.261Z,81.53
2022-09-18T01:49:01.329Z,81.47
2022-09-18T01:49:21.380Z,81.46
2022-09-18T01:49:41.418Z,81.46
2022-09-18T01:50:01.462Z,81.6
2022-09-18T01:50:21.533Z,81.47
2022-09-18T01:50:41.574Z,81.58
2022-09-18T01:51:01.657Z,81.63
2022-09-18T01:51:21.696Z,81.51
2022-09-18T01:51:41.762Z,81.43
2022-09-18T01:52:01.810Z,81.5
2022-09-18T01:52:21.863Z,81.52
2022-09-18T01:52:41.939Z,81.59
2022-09-18T01:53:02.012Z,81.52
2022-09-18T01:53:22.079Z,81.48
2022-09-18T01:53:42.137Z,81.31
2022-09-18T01:54:02.314Z,81.27
2022-09-18T01:54:22.264Z,81.38
2022-09-18T01:54:42.326Z,81.36
2022-09-18T01:55:02.378Z,81.4
2022-09-18T01:55:22.418Z,81.35
2022-09-18T01:55:42.489Z,81.41
2022-09-18T01:56:02.533Z,81.46
2022-09-18T01:56:22.584Z,81.58
2022-09-18T01:56:42.628Z,81.49
2022-09-18T01:57:02.658Z,81.49
2022-09-18T01:57:22.732Z,81.54
2022-09-18T01:57:42.766Z,81.59
2022-09-18T01:58:02.820Z,81.6
2022-09-18T01:58:22.879Z,81.53
2022-09-18T01:58:42.947Z,81.48
2022-09-18T01:59:03.022Z,81.54
2022-09-18T01:59:23.062Z,81.38
2022-09-18T01:59:43.129Z,81.36
2022-09-18T02:00:03.206Z,81.27
2022-09-18T02:00:23.240Z,81.11
2022-09-18T02:00:43.289Z,80.98
2022-09-18T02:01:03.362Z,81.01
2022-09-18T02:01:23.467Z,80.8
2022-09-18T02:01:43.607Z,80.78
2022-09-18T02:02:03.659Z,80.8
2022-09-18T02:02:23.768Z,80.74
2022-09-18T02:02:43.742Z,80.85
2022-09-18T02:03:03.836Z,80.92
2022-09-18T02:03:23.790Z,80.92
2022-09-18T02:03:43.822Z,81.06
2022-09-18T02:04:03.865Z,80.98
2022-09-18T02:04:23.927Z,81.04
2022-09-18T02:04:43.978Z,81.11
2022-09-18T02:05:04.060Z,81.12
2022-09-18T02:05:24.157Z,80.96
2022-09-18T02:05:44.208Z,80.84
2022-09-18T02:06:04.237Z,80.76
2022-09-18T02:06:24.266Z,80.81
2022-09-18T02:06:47.325Z,80.81
2022-09-18T02:07:11.389Z,80.87
2022-09-18T02:07:45.479Z,80.88
2022-09-18T02:09:04.721Z,80.78
2022-09-18T02:09:24.770Z,80.64
2022-09-18T02:09:44.804Z,80.63
2022-09-18T02:10:04.869Z,80.61
2022-09-18T02:10:24.890Z,80.71
2022-09-18T02:10:44.951Z,80.62
2022-09-18T02:11:05.024Z,80.54
2022-09-18T02:11:25.038Z,80.51
2022-09-18T02:11:45.067Z,80.41
2022-09-18T02:12:05.106Z,80.53
2022-09-18T02:12:25.142Z,80.56
2022-09-18T02:12:45.216Z,80.62
2022-09-18T02:13:05.267Z,80.63
2022-09-18T02:13:25.308Z,80.59
2022-09-18T02:13:45.367Z,80.67
2022-09-18T02:14:05.454Z,80.66
2022-09-18T02:14:25.512Z,80.71
2022-09-18T02:14:45.583Z,80.74
2022-09-18T02:15:05.654Z,80.76
2022-09-18T02:15:25.701Z,80.71
2022-09-18T02:15:45.860Z,80.6
2022-09-18T02:16:05.896Z,80.67
2022-09-18T02:16:25.976Z,80.87
2022-09-18T02:16:45.994Z,80.81
2022-09-18T02:17:06.036Z,80.78
2022-09-18T02:17:26.085Z,80.76
2022-09-18T02:17:46.134Z,80.82
2022-09-18T02:18:06.190Z,80.83
2022-09-18T02:18:26.269Z,80.89
2022-09-18T02:18:46.325Z,80.9
2022-09-18T02:19:06.407Z,80.94
2022-09-18T02:19:26.508Z,81.01
2022-09-18T02:19:46.577Z,81.07
2022-09-18T02:20:06.613Z,81.1
2022-09-18T02:20:26.659Z,81.14
2022-09-18T02:20:46.703Z,81.17
2022-09-18T02:21:06.772Z,81.23
2022-09-18T02:21:26.848Z,81.23
2022-09-18T02:21:46.874Z,81.28
2022-09-18T02:22:06.936Z,81.26
2022-09-18T02:22:27.008Z,81.31
2022-09-18T02:22:47.081Z,81.32
2022-09-18T02:23:07.126Z,81.41
2022-09-18T02:23:27.185Z,81.51
2022-09-18T02:23:47.253Z,81.49
2022-09-18T02:24:07.324Z,81.52
2022-09-18T02:24:27.417Z,81.54
2022-09-18T02:24:47.464Z,81.57
2022-09-18T02:25:07.492Z,81.58
2022-09-18T02:25:27.569Z,81.67
2022-09-18T02:25:47.629Z,81.79
2022-09-18T02:26:07.675Z,81.77
2022-09-18T02:26:27.794Z,81.78
2022-09-18T02:26:47.830Z,81.84
2022-09-18T02:27:07.896Z,81.9
2022-09-18T02:27:27.947Z,81.97
2022-09-18T02:27:48.008Z,82.02
2022-09-18T02:28:08.076Z,82.06
2022-09-18T02:28:28.125Z,82.1
2022-09-18T02:28:48.203Z,82.16
2022-09-18T02:29:08.250Z,82.25
2022-09-18T02:29:28.286Z,82.3
2022-09-18T02:29:48.341Z,82.22
2022-09-18T02:30:08.388Z,82.29
2022-09-18T02:30:28.453Z,82.32
2022-09-18T02:30:48.524Z,82.39
2022-09-18T02:31:08.688Z,82.46
2022-09-18T02:31:28.798Z,82.55
2022-09-18T02:31:48.836Z,82.69
2022-09-18T02:32:08.778Z,82.7
2022-09-18T02:32:28.837Z,82.75
2022-09-18T02:32:48.908Z,82.83
2022-09-18T02:33:08.975Z,82.8
2022-09-18T02:33:29.017Z,82.79
2022-09-18T02:33:49.086Z,82.85
2022-09-18T02:34:09.132Z,82.94
2022-09-18T02:34:29.194Z,82.99
2022-09-18T02:34:49.238Z,83.06
2022-09-18T02:35:09.311Z,83.03
2022-09-18T02:35:29.378Z,83.13
2022-09-18T02:35:49.450Z,83.22
2022-09-18T02:36:09.527Z,83.31
2022-09-18T02:36:29.588Z,83.36
2022-09-18T02:36:49.625Z,83.4
2022-09-18T02:37:09.690Z,83.49
2022-09-18T02:37:29.746Z,83.59
2022-09-18T02:37:49.786Z,83.6
2022-09-18T02:38:09.864Z,83.63
2022-09-18T02:38:29.900Z,83.63
2022-09-18T02:38:49.962Z,83.61
2022-09-18T02:39:10.001Z,83.67
2022-09-18T02:39:30.087Z,83.68
2022-09-18T02:39:50.154Z,83.64
2022-09-18T02:40:10.335Z,83.7
2022-09-18T02:40:30.385Z,83.76
2022-09-18T02:40:50.373Z,83.88
2022-09-18T02:41:10.448Z,83.91
2022-09-18T02:41:30.481Z,83.9
2022-09-18T02:41:50.524Z,83.99
2022-09-18T02:42:10.588Z,84.08
2022-09-18T02:42:30.650Z,84.18
2022-09-18T02:42:50.696Z,84.25
2022-09-18T02:43:10.825Z,84.28
2022-09-18T02:43:30.844Z,84.27
2022-09-18T02:43:50.903Z,84.38
2022-09-18T02:44:10.954Z,84.41
2022-09-18T02:44:31.011Z,84.43
2022-09-18T02:44:51.053Z,84.44
2022-09-18T02:45:11.135Z,84.46
2022-09-18T02:45:31.201Z,84.5
2022-09-18T02:45:51.242Z,84.54
2022-09-18T02:46:11.343Z,84.62
2022-09-18T02:46:31.419Z,84.68
2022-09-18T02:46:51.483Z,84.65
2022-09-18T02:47:11.469Z,84.68
2022-09-18T02:47:31.523Z,84.77
2022-09-18T02:47:51.562Z,84.79
2022-09-18T02:48:11.633Z,84.76
2022-09-18T02:48:31.673Z,84.81
2022-09-18T02:48:51.737Z,84.76
2022-09-18T02:49:11.779Z,84.8
2022-09-18T02:49:31.845Z,84.83
2022-09-18T02:49:51.885Z,84.84
2022-09-18T02:50:11.955Z,84.81
2022-09-18T02:50:32.008Z,84.93
2022-09-18T02:50:52.059Z,84.95
2022-09-18T02:51:12.116Z,84.97
2022-09-18T02:51:32.165Z,85.01
2022-09-18T02:51:52.219Z,85.05
2022-09-18T02:52:12.272Z,85.15
2022-09-18T02:52:32.310Z,85.14
2022-09-18T02:52:52.391Z,85.2
2022-09-18T02:53:12.420Z,85.27
2022-09-18T02:53:32.466Z,85.27
2022-09-18T02:53:52.518Z,85.3
2022-09-18T02:54:12.585Z,85.33
2022-09-18T02:54:32.638Z,85.35
2022-09-18T02:54:52.718Z,85.39
2022-09-18T02:55:12.808Z,85.38
2022-09-18T02:55:32.839Z,85.39
2022-09-18T02:55:52.927Z,85.52
2022-09-18T02:56:12.977Z,85.6
2022-09-18T02:56:33.047Z,85.58
2022-09-18T02:56:53.087Z,85.62
2022-09-18T02:57:13.156Z,85.57
2022-09-18T02:57:33.260Z,85.64
2022-09-18T02:57:53.298Z,85.68
2022-09-18T02:58:13.357Z,85.71
2022-09-18T02:58:33.435Z,85.68
2022-09-18T02:58:53.469Z,85.66
2022-09-18T02:59:13.527Z,85.64
2022-09-18T02:59:33.596Z,85.75
2022-09-18T02:59:53.643Z,85.75
2022-09-18T03:00:13.734Z,85.79
2022-09-18T03:00:33.781Z,85.85
2022-09-18T03:00:53.859Z,85.87
2022-09-18T03:01:13.948Z,85.89
2022-09-18T03:01:34.012Z,85.85
2022-09-18T03:01:54.214Z,85.84
2022-09-18T03:02:14.184Z,85.92
2022-09-18T03:02:34.237Z,85.98
2022-09-18T03:02:54.278Z,86
2022-09-18T03:03:14.295Z,85.95
2022-09-18T03:03:34.354Z,85.98
2022-09-18T03:03:54.432Z,86
2022-09-18T03:04:14.493Z,86.05
2022-09-18T03:04:34.564Z,86.07
2022-09-18T03:04:54.613Z,86.11
2022-09-18T03:05:14.682Z,86.21
2022-09-18T03:05:34.745Z,86.16
2022-09-18T03:05:54.813Z,86.03
2022-09-18T03:06:14.868Z,86.05
2022-09-18T03:06:34.932Z,86
2022-09-18T03:06:54.964Z,85.97
2022-09-18T03:07:15.039Z,85.89
2022-09-18T03:07:35.100Z,85.91
2022-09-18T03:07:55.179Z,85.91
2022-09-18T03:08:15.220Z,85.82
2022-09-18T03:08:35.261Z,85.89
2022-09-18T03:08:55.334Z,85.89
2022-09-18T03:09:15.391Z,85.9
2022-09-18T03:09:35.429Z,85.87
2022-09-18T03:09:55.486Z,85.77
2022-09-18T03:10:15.543Z,85.73
2022-09-18T03:10:35.612Z,85.74
2022-09-18T03:10:55.671Z,85.78
2022-09-18T03:11:15.749Z,85.76
2022-09-18T03:11:35.829Z,85.75
2022-09-18T03:11:55.890Z,85.77
2022-09-18T03:12:15.904Z,85.77
2022-09-18T03:12:35.954Z,85.76
2022-09-18T03:12:56.010Z,85.74
2022-09-18T03:13:16.062Z,85.68
2022-09-18T03:13:36.099Z,85.67
2022-09-18T03:13:56.161Z,85.69
2022-09-18T03:14:16.247Z,85.68
2022-09-18T03:14:36.319Z,85.67
2022-09-18T03:14:56.372Z,85.67
2022-09-18T03:15:16.409Z,85.7
2022-09-18T03:15:36.523Z,85.74
2022-09-18T03:15:56.626Z,85.74
2022-09-18T03:16:16.702Z,85.81
2022-09-18T03:16:36.773Z,85.75
2022-09-18T03:16:56.728Z,85.75
2022-09-18T03:17:16.789Z,85.8
2022-09-18T03:17:36.847Z,85.8
2022-09-18T03:17:56.885Z,85.85
2022-09-18T03:18:16.959Z,85.89
2022-09-18T03:18:37.017Z,85.88
2022-09-18T03:18:57.097Z,85.93
2022-09-18T03:19:17.144Z,85.97
2022-09-18T03:19:37.189Z,86.03
2022-09-18T03:19:57.246Z,86.04
2022-09-18T03:20:17.314Z,86.05
2022-09-18T03:20:37.397Z,86.04
2022-09-18T03:20:57.466Z,86.07
2022-09-18T03:21:17.521Z,86.1
2022-09-18T03:21:37.571Z,86.14
2022-09-18T03:21:57.622Z,86.13
2022-09-18T03:22:17.681Z,86.13
2022-09-18T03:22:37.739Z,86.21
2022-09-18T03:22:57.797Z,86.28
2022-09-18T03:23:17.871Z,86.31
2022-09-18T03:23:40.275Z,86.37
2022-09-18T03:23:58.053Z,86.42
2022-09-18T03:24:18.083Z,86.42
2022-09-18T03:24:38.173Z,86.45
2022-09-18T03:24:58.221Z,86.63
2022-09-18T03:25:18.274Z,86.68
2022-09-18T03:25:38.311Z,86.67
2022-09-18T03:25:58.368Z,86.68
2022-09-18T03:26:18.435Z,86.74
2022-09-18T03:26:38.507Z,86.76
2022-09-18T03:26:58.583Z,86.81
2022-09-18T03:27:18.657Z,86.89
2022-09-18T03:27:38.706Z,86.84
2022-09-18T03:27:58.754Z,86.81
2022-09-18T03:28:18.816Z,86.96
2022-09-18T03:28:38.873Z,86.9
2022-09-18T03:28:58.945Z,86.87
2022-09-18T03:29:18.998Z,86.9
2022-09-18T03:29:39.070Z,86.88
2022-09-18T03:29:59.122Z,86.89
2022-09-18T03:30:19.174Z,86.95
2022-09-18T03:30:39.221Z,87
2022-09-18T03:30:59.348Z,87.03
2022-09-18T03:31:19.421Z,87.01
2022-09-18T03:31:39.473Z,87.1
2022-09-18T03:31:59.427Z,87.08
2022-09-18T03:32:19.484Z,87.16
2022-09-18T03:32:39.551Z,87.19
2022-09-18T03:32:59.597Z,87.22
2022-09-18T03:33:19.657Z,87.24
2022-09-18T03:33:39.707Z,87.27
2022-09-18T03:33:59.758Z,87.27
2022-09-18T03:34:19.816Z,87.27
2022-09-18T03:34:39.889Z,87.33
2022-09-18T03:34:59.970Z,87.33
2022-09-18T03:35:20.027Z,87.5
2022-09-18T03:35:40.071Z,87.61
2022-09-18T03:36:00.132Z,87.71
2022-09-18T03:36:20.173Z,87.78
2022-09-18T03:36:40.238Z,87.82
2022-09-18T03:37:00.303Z,87.81
2022-09-18T03:37:20.353Z,87.79
2022-09-18T03:37:40.410Z,87.76
2022-09-18T03:38:00.458Z,87.82
2022-09-18T03:38:20.498Z,87.82
2022-09-18T03:38:40.560Z,87.85
2022-09-18T03:39:00.717Z,87.85
2022-09-18T03:39:20.748Z,87.87
2022-09-18T03:39:40.760Z,87.92
2022-09-18T03:40:00.956Z,87.93
2022-09-18T03:40:20.999Z,87.9
2022-09-18T03:40:44.198Z,87.84
2022-09-18T03:41:01.050Z,87.88
2022-09-18T03:41:21.109Z,87.87
2022-09-18T03:41:41.188Z,87.89
2022-09-18T03:42:01.233Z,87.93
2022-09-18T03:42:21.290Z,87.99
2022-09-18T03:42:41.334Z,88.04
2022-09-18T03:43:01.401Z,88.05
2022-09-18T03:43:21.474Z,88.1
2022-09-18T03:43:41.558Z,88.12
2022-09-18T03:44:01.744Z,88.18
2022-09-18T03:44:21.718Z,88.17
2022-09-18T03:44:41.777Z,88.24
2022-09-18T03:45:01.831Z,88.25
2022-09-18T03:45:21.890Z,88.26
2022-09-18T03:45:41.945Z,88.32
2022-09-18T03:46:02.110Z,88.41
2022-09-18T03:46:22.156Z,88.4
2022-09-18T03:46:42.194Z,88.37
2022-09-18T03:47:02.140Z,88.31
2022-09-18T03:47:22.180Z,88.29
2022-09-18T03:47:42.237Z,88.31
2022-09-18T03:48:02.318Z,88.33
2022-09-18T03:48:22.378Z,88.3
2022-09-18T03:48:42.438Z,88.33
2022-09-18T03:49:02.487Z,88.36
2022-09-18T03:49:22.542Z,88.36
2022-09-18T03:49:42.576Z,88.37
2022-09-18T03:50:02.626Z,88.43
2022-09-18T03:50:22.692Z,88.5
2022-09-18T03:50:42.708Z,88.59
2022-09-18T03:51:02.765Z,88.62
2022-09-18T03:51:22.810Z,88.63
2022-09-18T03:51:42.899Z,88.67
2022-09-18T03:52:02.915Z,88.86
2022-09-18T03:52:22.957Z,88.88
2022-09-18T03:52:43.746Z,88.91
2022-09-18T03:53:03.095Z,88.85
2022-09-18T03:53:23.159Z,88.82
2022-09-18T03:53:43.216Z,88.9
2022-09-18T03:54:03.414Z,88.91
2022-09-18T03:54:23.342Z,88.94
2022-09-18T03:54:43.368Z,88.9
2022-09-18T03:55:03.435Z,88.9
2022-09-18T03:55:23.479Z,88.93
2022-09-18T03:55:43.547Z,88.96
2022-09-18T03:56:03.610Z,88.92
2022-09-18T03:56:23.667Z,88.91
2022-09-18T03:56:43.732Z,88.91
2022-09-18T03:57:03.813Z,88.95
2022-09-18T03:57:23.848Z,88.87
2022-09-18T03:57:43.919Z,88.85
2022-09-18T03:58:03.971Z,88.86
2022-09-18T03:58:24.075Z,88.78
2022-09-18T03:58:44.106Z,88.73
2022-09-18T03:59:04.161Z,88.7
2022-09-18T03:59:24.214Z,88.71
2022-09-18T03:59:44.292Z,88.71
2022-09-18T04:00:04.356Z,88.68
2022-09-18T04:00:24.431Z,88.65
2022-09-18T04:00:44.483Z,88.72
2022-09-18T04:01:04.554Z,88.73
2022-09-18T04:01:24.692Z,88.82
2022-09-18T04:01:44.719Z,88.85
2022-09-18T04:02:04.923Z,88.89
2022-09-18T04:02:24.870Z,88.79
2022-09-18T04:02:44.873Z,88.88
2022-09-18T04:03:04.979Z,88.89
2022-09-18T04:03:24.989Z,88.81
2022-09-18T04:03:45.023Z,88.81
2022-09-18T04:04:05.072Z,88.87
2022-09-18T04:04:25.119Z,88.91
2022-09-18T04:04:45.216Z,88.89
2022-09-18T04:05:05.270Z,88.86
2022-09-18T04:05:25.331Z,88.89
2022-09-18T04:05:45.392Z,88.83
2022-09-18T04:06:05.456Z,88.84
2022-09-18T04:06:25.514Z,88.74
2022-09-18T04:06:45.598Z,88.74
2022-09-18T04:07:05.660Z,88.77
2022-09-18T04:07:25.698Z,88.78
2022-09-18T04:07:45.764Z,88.76
2022-09-18T04:08:05.814Z,88.85
2022-09-18T04:08:25.901Z,88.9
2022-09-18T04:08:45.975Z,88.98
2022-09-18T04:09:06.063Z,89.01
2022-09-18T04:09:26.113Z,89.05
2022-09-18T04:09:46.202Z,89.12
2022-09-18T04:10:06.232Z,89.18
2022-09-18T04:10:26.291Z,89.19
2022-09-18T04:10:46.369Z,89.2
2022-09-18T04:11:06.441Z,89.16
2022-09-18T04:11:26.486Z,89.18
2022-09-18T04:11:46.553Z,89.25
2022-09-18T04:12:06.607Z,89.24
2022-09-18T04:12:26.685Z,89.36
2022-09-18T04:12:46.747Z,89.4
2022-09-18T04:13:06.774Z,89.33
2022-09-18T04:13:26.842Z,89.32
2022-09-18T04:13:46.903Z,89.27
2022-09-18T04:14:06.970Z,89.34
2022-09-18T04:14:30.126Z,89.42
2022-09-18T04:14:47.066Z,89.58
2022-09-18T04:15:07.088Z,89.64
2022-09-18T04:15:27.166Z,89.68
2022-09-18T04:15:47.212Z,89.61
2022-09-18T04:16:07.386Z,89.64
2022-09-18T04:16:27.343Z,89.7
2022-09-18T04:16:47.324Z,89.64
2022-09-18T04:17:07.385Z,89.56
2022-09-18T04:17:27.442Z,89.53
2022-09-18T04:17:47.496Z,89.49
2022-09-18T04:18:07.553Z,89.46
2022-09-18T04:18:27.597Z,89.54
2022-09-18T04:18:47.662Z,89.56
2022-09-18T04:19:07.719Z,89.59
2022-09-18T04:19:27.785Z,89.68
2022-09-18T04:19:51.430Z,89.84
2022-09-18T04:20:07.870Z,89.92
2022-09-18T04:20:27.952Z,89.95
2022-09-18T04:20:48.042Z,90.05